sensor_id;sensor_type;location;lat;lon;timestamp;P1;durP1;ratioP1;P2;durP2;ratioP2
20629;SDS011;17386;43.846;25.950;2023-07-31T00:02:16;6.07;;;4.78;;
20629;SDS011;17386;43.846;25.950;2023-07-31T00:04:43;6.57;;;4.45;;
20629;SDS011;17386;43.846;25.950;2023-07-31T00:07:10;5.85;;;3.80;;
20629;SDS011;17386;43.846;25.950;2023-07-31T00:09:38;6.95;;;3.33;;
20629;SDS011;17386;43.846;25.950;2023-07-31T00:12:03;7.60;;;3.22;;
20629;SDS011;17386;43.846;25.950;2023-07-31T00:14:30;6.05;;;3.25;;
20629;SDS011;17386;43.846;25.950;2023-07-31T00:16:57;7.70;;;3.40;;
20629;SDS011;17386;43.846;25.950;2023-07-31T00:19:24;5.10;;;3.33;;
20629;SDS011;17386;43.846;25.950;2023-07-31T00:21:51;5.38;;;3.00;;
20629;SDS011;17386;43.846;25.950;2023-07-31T00:24:17;5.20;;;3.10;;
20629;SDS011;17386;43.846;25.950;2023-07-31T00:26:44;4.43;;;2.85;;
20629;SDS011;17386;43.846;25.950;2023-07-31T00:29:10;4.55;;;3.03;;
20629;SDS011;17386;43.846;25.950;2023-07-31T00:31:37;6.53;;;3.30;;
20629;SDS011;17386;43.846;25.950;2023-07-31T00:34:03;4.93;;;3.28;;
20629;SDS011;17386;43.846;25.950;2023-07-31T00:36:30;3.35;;;2.60;;
20629;SDS011;17386;43.846;25.950;2023-07-31T00:38:57;7.30;;;2.60;;
20629;SDS011;17386;43.846;25.950;2023-07-31T00:41:23;4.53;;;2.75;;
20629;SDS011;17386;43.846;25.950;2023-07-31T00:43:50;4.57;;;2.40;;
20629;SDS011;17386;43.846;25.950;2023-07-31T00:46:16;4.70;;;2.70;;
20629;SDS011;17386;43.846;25.950;2023-07-31T00:48:43;7.10;;;2.72;;
20629;SDS011;17386;43.846;25.950;2023-07-31T00:51:10;4.45;;;2.60;;
20629;SDS011;17386;43.846;25.950;2023-07-31T00:53:37;3.55;;;2.65;;
20629;SDS011;17386;43.846;25.950;2023-07-31T00:56:05;4.10;;;2.60;;
20629;SDS011;17386;43.846;25.950;2023-07-31T00:58:32;6.32;;;2.72;;
20629;SDS011;17386;43.846;25.950;2023-07-31T01:00:59;4.38;;;2.80;;
20629;SDS011;17386;43.846;25.950;2023-07-31T01:03:25;4.40;;;2.58;;
20629;SDS011;17386;43.846;25.950;2023-07-31T01:09:03;5.43;;;3.00;;
20629;SDS011;17386;43.846;25.950;2023-07-31T01:11:43;4.57;;;2.83;;
20629;SDS011;17386;43.846;25.950;2023-07-31T01:14:17;4.22;;;2.80;;
20629;SDS011;17386;43.846;25.950;2023-07-31T01:16:44;5.95;;;2.60;;
20629;SDS011;17386;43.846;25.950;2023-07-31T01:19:10;8.05;;;2.63;;
20629;SDS011;17386;43.846;25.950;2023-07-31T01:21:49;4.95;;;2.42;;
20629;SDS011;17386;43.846;25.950;2023-07-31T01:27:12;5.60;;;2.55;;
20629;SDS011;17386;43.846;25.950;2023-07-31T01:29:46;5.80;;;2.38;;
20629;SDS011;17386;43.846;25.950;2023-07-31T01:32:16;3.75;;;2.20;;
20629;SDS011;17386;43.846;25.950;2023-07-31T01:34:44;3.58;;;2.35;;
20629;SDS011;17386;43.846;25.950;2023-07-31T01:37:12;3.42;;;2.45;;
20629;SDS011;17386;43.846;25.950;2023-07-31T01:39:39;5.28;;;2.75;;
20629;SDS011;17386;43.846;25.950;2023-07-31T01:42:06;5.07;;;2.80;;
20629;SDS011;17386;43.846;25.950;2023-07-31T01:44:33;4.78;;;3.20;;
20629;SDS011;17386;43.846;25.950;2023-07-31T01:47:01;10.38;;;3.72;;
20629;SDS011;17386;43.846;25.950;2023-07-31T01:49:27;8.02;;;3.58;;
20629;SDS011;17386;43.846;25.950;2023-07-31T01:51:54;7.20;;;4.10;;
20629;SDS011;17386;43.846;25.950;2023-07-31T01:54:21;9.35;;;4.45;;
20629;SDS011;17386;43.846;25.950;2023-07-31T01:56:47;8.50;;;4.22;;
20629;SDS011;17386;43.846;25.950;2023-07-31T01:59:13;7.95;;;4.20;;
20629;SDS011;17386;43.846;25.950;2023-07-31T02:01:40;9.52;;;5.07;;
20629;SDS011;17386;43.846;25.950;2023-07-31T02:04:07;7.85;;;5.00;;
20629;SDS011;17386;43.846;25.950;2023-07-31T02:06:34;10.48;;;5.90;;
20629;SDS011;17386;43.846;25.950;2023-07-31T02:09:00;9.43;;;5.30;;
20629;SDS011;17386;43.846;25.950;2023-07-31T02:11:27;9.15;;;6.00;;
20629;SDS011;17386;43.846;25.950;2023-07-31T02:13:54;10.00;;;5.85;;
20629;SDS011;17386;43.846;25.950;2023-07-31T02:16:19;7.93;;;5.78;;
20629;SDS011;17386;43.846;25.950;2023-07-31T02:18:46;9.93;;;5.68;;
20629;SDS011;17386;43.846;25.950;2023-07-31T02:21:13;9.80;;;5.47;;
20629;SDS011;17386;43.846;25.950;2023-07-31T02:23:39;8.07;;;5.35;;
20629;SDS011;17386;43.846;25.950;2023-07-31T02:26:06;8.95;;;4.93;;
20629;SDS011;17386;43.846;25.950;2023-07-31T02:28:32;10.00;;;5.47;;
20629;SDS011;17386;43.846;25.950;2023-07-31T02:30:59;8.75;;;5.18;;
20629;SDS011;17386;43.846;25.950;2023-07-31T02:33:26;6.57;;;4.50;;
20629;SDS011;17386;43.846;25.950;2023-07-31T02:35:52;9.13;;;5.28;;
20629;SDS011;17386;43.846;25.950;2023-07-31T02:38:19;7.25;;;5.15;;
20629;SDS011;17386;43.846;25.950;2023-07-31T02:40:45;9.27;;;5.30;;
20629;SDS011;17386;43.846;25.950;2023-07-31T02:43:12;8.57;;;6.07;;
20629;SDS011;17386;43.846;25.950;2023-07-31T02:45:39;9.75;;;6.30;;
20629;SDS011;17386;43.846;25.950;2023-07-31T02:48:04;10.82;;;6.45;;
20629;SDS011;17386;43.846;25.950;2023-07-31T02:50:31;9.27;;;6.95;;
20629;SDS011;17386;43.846;25.950;2023-07-31T02:52:59;10.98;;;6.72;;
20629;SDS011;17386;43.846;25.950;2023-07-31T02:55:25;9.30;;;6.50;;
20629;SDS011;17386;43.846;25.950;2023-07-31T02:57:52;9.32;;;6.97;;
20629;SDS011;17386;43.846;25.950;2023-07-31T03:00:19;10.38;;;7.43;;
20629;SDS011;17386;43.846;25.950;2023-07-31T03:02:44;11.50;;;7.63;;
20629;SDS011;17386;43.846;25.950;2023-07-31T03:05:11;10.63;;;7.57;;
20629;SDS011;17386;43.846;25.950;2023-07-31T03:07:37;9.25;;;7.57;;
20629;SDS011;17386;43.846;25.950;2023-07-31T03:10:04;10.25;;;7.22;;
20629;SDS011;17386;43.846;25.950;2023-07-31T03:12:31;14.45;;;7.65;;
20629;SDS011;17386;43.846;25.950;2023-07-31T03:14:58;9.48;;;7.05;;
20629;SDS011;17386;43.846;25.950;2023-07-31T03:17:24;11.30;;;7.57;;
20629;SDS011;17386;43.846;25.950;2023-07-31T03:19:51;13.57;;;8.13;;
20629;SDS011;17386;43.846;25.950;2023-07-31T03:22:17;10.77;;;7.72;;
20629;SDS011;17386;43.846;25.950;2023-07-31T03:24:44;10.25;;;7.70;;
20629;SDS011;17386;43.846;25.950;2023-07-31T03:27:10;10.80;;;7.43;;
20629;SDS011;17386;43.846;25.950;2023-07-31T03:29:37;11.38;;;7.68;;
20629;SDS011;17386;43.846;25.950;2023-07-31T03:32:04;11.80;;;8.02;;
20629;SDS011;17386;43.846;25.950;2023-07-31T03:36:58;9.70;;;7.13;;
20629;SDS011;17386;43.846;25.950;2023-07-31T03:39:25;11.40;;;7.88;;
20629;SDS011;17386;43.846;25.950;2023-07-31T03:41:52;11.77;;;7.55;;
20629;SDS011;17386;43.846;25.950;2023-07-31T03:44:19;12.00;;;7.55;;
20629;SDS011;17386;43.846;25.950;2023-07-31T03:46:45;10.07;;;7.65;;
20629;SDS011;17386;43.846;25.950;2023-07-31T03:49:12;10.70;;;7.43;;
20629;SDS011;17386;43.846;25.950;2023-07-31T03:51:39;11.40;;;7.93;;
20629;SDS011;17386;43.846;25.950;2023-07-31T03:54:05;12.60;;;7.72;;
20629;SDS011;17386;43.846;25.950;2023-07-31T03:56:33;10.25;;;7.78;;
20629;SDS011;17386;43.846;25.950;2023-07-31T03:59:00;11.13;;;7.93;;
20629;SDS011;17386;43.846;25.950;2023-07-31T04:01:27;11.30;;;8.15;;
20629;SDS011;17386;43.846;25.950;2023-07-31T04:03:52;12.65;;;8.20;;
20629;SDS011;17386;43.846;25.950;2023-07-31T04:06:19;13.90;;;8.63;;
20629;SDS011;17386;43.846;25.950;2023-07-31T04:08:45;11.80;;;8.20;;
20629;SDS011;17386;43.846;25.950;2023-07-31T04:11:11;10.88;;;8.15;;
20629;SDS011;17386;43.846;25.950;2023-07-31T04:13:38;11.45;;;8.88;;
20629;SDS011;17386;43.846;25.950;2023-07-31T04:16:05;10.77;;;8.38;;
20629;SDS011;17386;43.846;25.950;2023-07-31T04:18:32;13.00;;;8.93;;
20629;SDS011;17386;43.846;25.950;2023-07-31T04:20:59;12.32;;;8.90;;
20629;SDS011;17386;43.846;25.950;2023-07-31T04:23:26;12.45;;;8.80;;
20629;SDS011;17386;43.846;25.950;2023-07-31T04:25:51;12.43;;;8.38;;
20629;SDS011;17386;43.846;25.950;2023-07-31T04:28:17;13.07;;;8.95;;
20629;SDS011;17386;43.846;25.950;2023-07-31T04:30:43;11.90;;;8.60;;
20629;SDS011;17386;43.846;25.950;2023-07-31T04:33:10;12.30;;;9.07;;
20629;SDS011;17386;43.846;25.950;2023-07-31T04:35:35;12.73;;;8.45;;
20629;SDS011;17386;43.846;25.950;2023-07-31T04:38:02;12.40;;;8.73;;
20629;SDS011;17386;43.846;25.950;2023-07-31T04:40:27;14.77;;;8.82;;
20629;SDS011;17386;43.846;25.950;2023-07-31T04:42:54;12.55;;;9.38;;
20629;SDS011;17386;43.846;25.950;2023-07-31T04:45:20;12.43;;;9.30;;
20629;SDS011;17386;43.846;25.950;2023-07-31T04:47:46;11.70;;;8.77;;
20629;SDS011;17386;43.846;25.950;2023-07-31T04:50:12;13.32;;;9.23;;
20629;SDS011;17386;43.846;25.950;2023-07-31T04:52:39;15.43;;;9.35;;
20629;SDS011;17386;43.846;25.950;2023-07-31T04:55:04;13.10;;;9.38;;
20629;SDS011;17386;43.846;25.950;2023-07-31T04:57:30;12.07;;;9.52;;
20629;SDS011;17386;43.846;25.950;2023-07-31T04:59:56;14.20;;;9.95;;
20629;SDS011;17386;43.846;25.950;2023-07-31T05:02:23;15.10;;;9.73;;
20629;SDS011;17386;43.846;25.950;2023-07-31T05:04:49;12.30;;;9.25;;
20629;SDS011;17386;43.846;25.950;2023-07-31T05:07:16;14.48;;;9.57;;
20629;SDS011;17386;43.846;25.950;2023-07-31T05:09:43;12.70;;;9.18;;
20629;SDS011;17386;43.846;25.950;2023-07-31T05:12:10;15.40;;;9.20;;
20629;SDS011;17386;43.846;25.950;2023-07-31T05:14:37;14.10;;;10.20;;
20629;SDS011;17386;43.846;25.950;2023-07-31T05:17:04;15.20;;;10.18;;
20629;SDS011;17386;43.846;25.950;2023-07-31T05:19:32;16.75;;;10.60;;
20629;SDS011;17386;43.846;25.950;2023-07-31T05:21:57;15.98;;;10.65;;
20629;SDS011;17386;43.846;25.950;2023-07-31T05:24:22;13.73;;;9.48;;
20629;SDS011;17386;43.846;25.950;2023-07-31T05:26:48;13.65;;;9.85;;
20629;SDS011;17386;43.846;25.950;2023-07-31T05:29:13;15.05;;;10.52;;
20629;SDS011;17386;43.846;25.950;2023-07-31T05:31:39;18.38;;;10.95;;
20629;SDS011;17386;43.846;25.950;2023-07-31T05:34:04;17.15;;;11.15;;
20629;SDS011;17386;43.846;25.950;2023-07-31T05:36:29;15.88;;;11.02;;
20629;SDS011;17386;43.846;25.950;2023-07-31T05:38:55;12.23;;;9.45;;
20629;SDS011;17386;43.846;25.950;2023-07-31T05:41:20;11.75;;;8.73;;
20629;SDS011;17386;43.846;25.950;2023-07-31T05:43:48;13.77;;;9.32;;
20629;SDS011;17386;43.846;25.950;2023-07-31T05:46:14;10.82;;;8.40;;
20629;SDS011;17386;43.846;25.950;2023-07-31T05:48:42;14.40;;;9.57;;
20629;SDS011;17386;43.846;25.950;2023-07-31T05:51:09;12.70;;;8.45;;
20629;SDS011;17386;43.846;25.950;2023-07-31T05:53:36;11.13;;;8.13;;
20629;SDS011;17386;43.846;25.950;2023-07-31T05:56:05;11.85;;;8.13;;
20629;SDS011;17386;43.846;25.950;2023-07-31T06:01:00;12.50;;;8.23;;
20629;SDS011;17386;43.846;25.950;2023-07-31T06:03:27;11.65;;;8.43;;
20629;SDS011;17386;43.846;25.950;2023-07-31T06:05:54;10.05;;;8.73;;
20629;SDS011;17386;43.846;25.950;2023-07-31T06:08:20;9.73;;;7.45;;
20629;SDS011;17386;43.846;25.950;2023-07-31T06:10:47;11.77;;;8.55;;
20629;SDS011;17386;43.846;25.950;2023-07-31T06:13:13;11.45;;;8.20;;
20629;SDS011;17386;43.846;25.950;2023-07-31T06:15:39;12.77;;;8.95;;
20629;SDS011;17386;43.846;25.950;2023-07-31T06:18:05;10.85;;;8.60;;
20629;SDS011;17386;43.846;25.950;2023-07-31T06:20:33;12.73;;;9.77;;
20629;SDS011;17386;43.846;25.950;2023-07-31T06:25:26;12.82;;;8.57;;
20629;SDS011;17386;43.846;25.950;2023-07-31T06:27:53;12.10;;;9.25;;
20629;SDS011;17386;43.846;25.950;2023-07-31T06:30:20;13.52;;;10.07;;
20629;SDS011;17386;43.846;25.950;2023-07-31T06:32:46;14.10;;;9.88;;
20629;SDS011;17386;43.846;25.950;2023-07-31T06:35:12;16.15;;;10.82;;
20629;SDS011;17386;43.846;25.950;2023-07-31T06:37:38;16.00;;;11.70;;
20629;SDS011;17386;43.846;25.950;2023-07-31T06:40:06;16.13;;;11.40;;
20629;SDS011;17386;43.846;25.950;2023-07-31T06:42:35;14.82;;;10.90;;
20629;SDS011;17386;43.846;25.950;2023-07-31T06:45:04;15.02;;;10.70;;
20629;SDS011;17386;43.846;25.950;2023-07-31T06:47:30;16.98;;;10.88;;
20629;SDS011;17386;43.846;25.950;2023-07-31T06:49:55;14.93;;;10.45;;
20629;SDS011;17386;43.846;25.950;2023-07-31T06:52:23;15.23;;;10.23;;
20629;SDS011;17386;43.846;25.950;2023-07-31T06:55:00;14.50;;;9.63;;
20629;SDS011;17386;43.846;25.950;2023-07-31T06:57:27;13.77;;;9.98;;
20629;SDS011;17386;43.846;25.950;2023-07-31T06:59:55;14.50;;;9.52;;
20629;SDS011;17386;43.846;25.950;2023-07-31T07:02:22;11.82;;;8.95;;
20629;SDS011;17386;43.846;25.950;2023-07-31T07:04:48;13.23;;;9.70;;
20629;SDS011;17386;43.846;25.950;2023-07-31T07:07:14;15.55;;;10.90;;
20629;SDS011;17386;43.846;25.950;2023-07-31T07:09:42;13.00;;;9.15;;
20629;SDS011;17386;43.846;25.950;2023-07-31T07:12:09;11.07;;;7.68;;
20629;SDS011;17386;43.846;25.950;2023-07-31T07:14:35;9.85;;;8.00;;
20629;SDS011;17386;43.846;25.950;2023-07-31T07:17:02;12.00;;;8.73;;
20629;SDS011;17386;43.846;25.950;2023-07-31T07:19:30;14.48;;;9.20;;
20629;SDS011;17386;43.846;25.950;2023-07-31T07:21:56;14.27;;;10.13;;
20629;SDS011;17386;43.846;25.950;2023-07-31T07:24:23;12.18;;;8.55;;
20629;SDS011;17386;43.846;25.950;2023-07-31T07:26:50;10.90;;;7.88;;
20629;SDS011;17386;43.846;25.950;2023-07-31T07:29:16;11.45;;;8.10;;
20629;SDS011;17386;43.846;25.950;2023-07-31T07:31:43;10.57;;;8.05;;
20629;SDS011;17386;43.846;25.950;2023-07-31T07:34:10;11.20;;;8.45;;
20629;SDS011;17386;43.846;25.950;2023-07-31T07:36:36;14.02;;;8.73;;
20629;SDS011;17386;43.846;25.950;2023-07-31T07:39:04;10.18;;;8.30;;
20629;SDS011;17386;43.846;25.950;2023-07-31T07:41:31;12.05;;;8.73;;
20629;SDS011;17386;43.846;25.950;2023-07-31T07:43:58;10.55;;;8.75;;
20629;SDS011;17386;43.846;25.950;2023-07-31T07:46:25;11.77;;;8.35;;
20629;SDS011;17386;43.846;25.950;2023-07-31T07:48:52;13.98;;;10.00;;
20629;SDS011;17386;43.846;25.950;2023-07-31T07:51:20;13.20;;;8.60;;
20629;SDS011;17386;43.846;25.950;2023-07-31T07:53:45;11.35;;;8.75;;
20629;SDS011;17386;43.846;25.950;2023-07-31T07:56:11;10.40;;;8.07;;
20629;SDS011;17386;43.846;25.950;2023-07-31T07:58:39;11.95;;;8.82;;
20629;SDS011;17386;43.846;25.950;2023-07-31T08:01:04;11.38;;;8.70;;
20629;SDS011;17386;43.846;25.950;2023-07-31T08:03:29;12.07;;;8.82;;
20629;SDS011;17386;43.846;25.950;2023-07-31T08:06:01;14.05;;;9.98;;
20629;SDS011;17386;43.846;25.950;2023-07-31T08:08:27;11.13;;;8.52;;
20629;SDS011;17386;43.846;25.950;2023-07-31T08:10:54;10.85;;;8.68;;
20629;SDS011;17386;43.846;25.950;2023-07-31T08:13:21;10.60;;;8.85;;
20629;SDS011;17386;43.846;25.950;2023-07-31T08:15:46;12.85;;;9.35;;
20629;SDS011;17386;43.846;25.950;2023-07-31T08:18:12;10.82;;;8.18;;
20629;SDS011;17386;43.846;25.950;2023-07-31T08:20:37;11.02;;;9.07;;
20629;SDS011;17386;43.846;25.950;2023-07-31T08:23:03;13.57;;;8.93;;
20629;SDS011;17386;43.846;25.950;2023-07-31T08:25:29;10.82;;;8.07;;
20629;SDS011;17386;43.846;25.950;2023-07-31T08:27:56;12.48;;;8.73;;
20629;SDS011;17386;43.846;25.950;2023-07-31T08:30:23;12.10;;;8.10;;
20629;SDS011;17386;43.846;25.950;2023-07-31T08:32:50;15.40;;;9.35;;
20629;SDS011;17386;43.846;25.950;2023-07-31T08:35:16;15.57;;;9.65;;
20629;SDS011;17386;43.846;25.950;2023-07-31T08:37:42;12.63;;;9.73;;
20629;SDS011;17386;43.846;25.950;2023-07-31T08:40:07;13.60;;;9.63;;
20629;SDS011;17386;43.846;25.950;2023-07-31T08:42:33;10.85;;;8.18;;
20629;SDS011;17386;43.846;25.950;2023-07-31T08:44:59;12.70;;;8.43;;
20629;SDS011;17386;43.846;25.950;2023-07-31T08:47:26;10.73;;;7.88;;
20629;SDS011;17386;43.846;25.950;2023-07-31T08:49:53;11.43;;;7.63;;
20629;SDS011;17386;43.846;25.950;2023-07-31T08:52:19;10.75;;;7.72;;
20629;SDS011;17386;43.846;25.950;2023-07-31T08:54:45;10.60;;;6.97;;
20629;SDS011;17386;43.846;25.950;2023-07-31T08:57:12;11.85;;;7.40;;
20629;SDS011;17386;43.846;25.950;2023-07-31T08:59:39;10.98;;;6.65;;
20629;SDS011;17386;43.846;25.950;2023-07-31T09:02:07;9.95;;;6.80;;
20629;SDS011;17386;43.846;25.950;2023-07-31T09:04:34;10.10;;;7.55;;
20629;SDS011;17386;43.846;25.950;2023-07-31T09:07:00;8.93;;;6.80;;
20629;SDS011;17386;43.846;25.950;2023-07-31T09:09:30;9.07;;;6.95;;
20629;SDS011;17386;43.846;25.950;2023-07-31T09:11:57;8.90;;;6.57;;
20629;SDS011;17386;43.846;25.950;2023-07-31T09:16:59;7.90;;;6.13;;
20629;SDS011;17386;43.846;25.950;2023-07-31T09:19:35;9.10;;;6.68;;
20629;SDS011;17386;43.846;25.950;2023-07-31T09:22:06;10.85;;;6.72;;
20629;SDS011;17386;43.846;25.950;2023-07-31T09:24:32;9.57;;;6.93;;
20629;SDS011;17386;43.846;25.950;2023-07-31T09:27:00;11.05;;;6.53;;
20629;SDS011;17386;43.846;25.950;2023-07-31T09:29:27;9.13;;;6.40;;
20629;SDS011;17386;43.846;25.950;2023-07-31T09:31:54;9.02;;;6.90;;
20629;SDS011;17386;43.846;25.950;2023-07-31T09:34:28;12.35;;;7.18;;
20629;SDS011;17386;43.846;25.950;2023-07-31T09:36:57;10.93;;;7.90;;
20629;SDS011;17386;43.846;25.950;2023-07-31T09:39:26;12.77;;;8.30;;
20629;SDS011;17386;43.846;25.950;2023-07-31T09:41:56;10.68;;;8.45;;
20629;SDS011;17386;43.846;25.950;2023-07-31T09:44:44;10.88;;;8.30;;
20629;SDS011;17386;43.846;25.950;2023-07-31T09:47:21;11.40;;;7.43;;
20629;SDS011;17386;43.846;25.950;2023-07-31T09:49:49;11.07;;;8.25;;
20629;SDS011;17386;43.846;25.950;2023-07-31T09:52:15;11.75;;;8.23;;
20629;SDS011;17386;43.846;25.950;2023-07-31T09:54:42;27.40;;;17.23;;
20629;SDS011;17386;43.846;25.950;2023-07-31T09:57:09;17.15;;;10.82;;
20629;SDS011;17386;43.846;25.950;2023-07-31T09:59:37;15.35;;;9.45;;
20629;SDS011;17386;43.846;25.950;2023-07-31T10:02:03;12.45;;;8.57;;
20629;SDS011;17386;43.846;25.950;2023-07-31T10:04:31;14.80;;;10.13;;
20629;SDS011;17386;43.846;25.950;2023-07-31T10:06:57;13.20;;;9.25;;
20629;SDS011;17386;43.846;25.950;2023-07-31T10:09:26;15.88;;;10.13;;
20629;SDS011;17386;43.846;25.950;2023-07-31T10:11:55;14.18;;;7.93;;
20629;SDS011;17386;43.846;25.950;2023-07-31T10:14:26;15.35;;;9.10;;
20629;SDS011;17386;43.846;25.950;2023-07-31T10:16:54;21.50;;;9.80;;
20629;SDS011;17386;43.846;25.950;2023-07-31T10:19:22;18.50;;;10.85;;
20629;SDS011;17386;43.846;25.950;2023-07-31T10:24:16;23.95;;;10.15;;
20629;SDS011;17386;43.846;25.950;2023-07-31T10:26:44;22.55;;;11.23;;
20629;SDS011;17386;43.846;25.950;2023-07-31T10:29:13;20.35;;;10.02;;
20629;SDS011;17386;43.846;25.950;2023-07-31T10:31:42;23.08;;;11.75;;
20629;SDS011;17386;43.846;25.950;2023-07-31T10:34:10;16.25;;;10.30;;
20629;SDS011;17386;43.846;25.950;2023-07-31T10:36:35;15.13;;;9.50;;
20629;SDS011;17386;43.846;25.950;2023-07-31T10:39:03;15.02;;;8.80;;
20629;SDS011;17386;43.846;25.950;2023-07-31T10:41:31;17.17;;;9.57;;
20629;SDS011;17386;43.846;25.950;2023-07-31T10:44:01;17.33;;;9.32;;
20629;SDS011;17386;43.846;25.950;2023-07-31T10:46:27;14.68;;;8.63;;
20629;SDS011;17386;43.846;25.950;2023-07-31T10:49:03;12.73;;;9.23;;
20629;SDS011;17386;43.846;25.950;2023-07-31T10:51:35;13.10;;;8.80;;
20629;SDS011;17386;43.846;25.950;2023-07-31T10:54:16;16.00;;;9.50;;
20629;SDS011;17386;43.846;25.950;2023-07-31T10:56:44;16.45;;;9.60;;
20629;SDS011;17386;43.846;25.950;2023-07-31T10:59:13;13.38;;;8.50;;
20629;SDS011;17386;43.846;25.950;2023-07-31T11:01:54;14.57;;;8.63;;
20629;SDS011;17386;43.846;25.950;2023-07-31T11:04:43;17.33;;;8.07;;
20629;SDS011;17386;43.846;25.950;2023-07-31T11:07:09;14.93;;;8.70;;
20629;SDS011;17386;43.846;25.950;2023-07-31T11:09:39;12.77;;;8.45;;
20629;SDS011;17386;43.846;25.950;2023-07-31T11:12:07;18.10;;;9.85;;
20629;SDS011;17386;43.846;25.950;2023-07-31T11:14:36;12.68;;;8.55;;
20629;SDS011;17386;43.846;25.950;2023-07-31T11:17:06;15.35;;;8.60;;
20629;SDS011;17386;43.846;25.950;2023-07-31T11:19:33;12.25;;;8.43;;
20629;SDS011;17386;43.846;25.950;2023-07-31T11:22:00;13.35;;;8.25;;
20629;SDS011;17386;43.846;25.950;2023-07-31T11:24:33;15.15;;;8.88;;
20629;SDS011;17386;43.846;25.950;2023-07-31T11:27:00;18.20;;;9.52;;
20629;SDS011;17386;43.846;25.950;2023-07-31T11:29:34;14.95;;;8.68;;
20629;SDS011;17386;43.846;25.950;2023-07-31T11:32:08;15.60;;;9.82;;
20629;SDS011;17386;43.846;25.950;2023-07-31T11:34:53;14.50;;;8.63;;
20629;SDS011;17386;43.846;25.950;2023-07-31T11:37:21;16.92;;;9.07;;
20629;SDS011;17386;43.846;25.950;2023-07-31T11:40:01;13.98;;;9.05;;
20629;SDS011;17386;43.846;25.950;2023-07-31T11:42:30;13.20;;;8.45;;
20629;SDS011;17386;43.846;25.950;2023-07-31T11:44:56;13.50;;;8.48;;
20629;SDS011;17386;43.846;25.950;2023-07-31T11:47:23;10.02;;;8.40;;
20629;SDS011;17386;43.846;25.950;2023-07-31T11:49:52;13.32;;;8.45;;
20629;SDS011;17386;43.846;25.950;2023-07-31T11:52:18;14.30;;;8.20;;
20629;SDS011;17386;43.846;25.950;2023-07-31T11:54:49;10.07;;;7.75;;
20629;SDS011;17386;43.846;25.950;2023-07-31T11:57:16;14.18;;;8.48;;
20629;SDS011;17386;43.846;25.950;2023-07-31T11:59:45;12.07;;;8.38;;
20629;SDS011;17386;43.846;25.950;2023-07-31T12:02:13;12.07;;;7.95;;
20629;SDS011;17386;43.846;25.950;2023-07-31T12:04:40;12.02;;;8.27;;
20629;SDS011;17386;43.846;25.950;2023-07-31T12:07:07;11.77;;;8.20;;
20629;SDS011;17386;43.846;25.950;2023-07-31T12:09:33;27.70;;;10.15;;
20629;SDS011;17386;43.846;25.950;2023-07-31T12:11:59;17.38;;;10.13;;
20629;SDS011;17386;43.846;25.950;2023-07-31T12:14:26;14.75;;;8.65;;
20629;SDS011;17386;43.846;25.950;2023-07-31T12:17:00;23.10;;;8.38;;
20629;SDS011;17386;43.846;25.950;2023-07-31T12:19:48;8.98;;;7.25;;
20629;SDS011;17386;43.846;25.950;2023-07-31T12:22:15;11.32;;;7.65;;
20629;SDS011;17386;43.846;25.950;2023-07-31T12:24:43;12.50;;;7.82;;
20629;SDS011;17386;43.846;25.950;2023-07-31T12:27:12;10.95;;;7.15;;
20629;SDS011;17386;43.846;25.950;2023-07-31T12:29:41;15.00;;;7.65;;
20629;SDS011;17386;43.846;25.950;2023-07-31T12:32:20;13.80;;;7.78;;
20629;SDS011;17386;43.846;25.950;2023-07-31T12:34:46;10.45;;;7.25;;
20629;SDS011;17386;43.846;25.950;2023-07-31T12:37:13;10.95;;;7.40;;
20629;SDS011;17386;43.846;25.950;2023-07-31T12:39:39;11.75;;;7.15;;
20629;SDS011;17386;43.846;25.950;2023-07-31T12:42:04;10.95;;;6.65;;
20629;SDS011;17386;43.846;25.950;2023-07-31T12:44:31;11.23;;;8.32;;
20629;SDS011;17386;43.846;25.950;2023-07-31T12:46:58;8.95;;;6.78;;
20629;SDS011;17386;43.846;25.950;2023-07-31T12:49:24;15.25;;;9.75;;
20629;SDS011;17386;43.846;25.950;2023-07-31T12:51:51;19.70;;;9.88;;
20629;SDS011;17386;43.846;25.950;2023-07-31T12:54:19;11.70;;;7.13;;
20629;SDS011;17386;43.846;25.950;2023-07-31T12:56:46;10.75;;;6.63;;
20629;SDS011;17386;43.846;25.950;2023-07-31T12:59:11;11.38;;;7.32;;
20629;SDS011;17386;43.846;25.950;2023-07-31T13:01:39;11.70;;;7.00;;
20629;SDS011;17386;43.846;25.950;2023-07-31T13:04:05;12.52;;;6.38;;
20629;SDS011;17386;43.846;25.950;2023-07-31T13:06:34;9.30;;;5.65;;
20629;SDS011;17386;43.846;25.950;2023-07-31T13:09:00;10.48;;;5.32;;
20629;SDS011;17386;43.846;25.950;2023-07-31T13:11:26;7.65;;;5.28;;
20629;SDS011;17386;43.846;25.950;2023-07-31T13:13:53;38.10;;;8.43;;
20629;SDS011;17386;43.846;25.950;2023-07-31T13:16:20;13.85;;;5.57;;
20629;SDS011;17386;43.846;25.950;2023-07-31T13:18:46;43.20;;;7.97;;
20629;SDS011;17386;43.846;25.950;2023-07-31T13:21:13;54.65;;;9.52;;
20629;SDS011;17386;43.846;25.950;2023-07-31T13:23:40;48.90;;;7.43;;
20629;SDS011;17386;43.846;25.950;2023-07-31T13:26:06;208.07;;;18.33;;
20629;SDS011;17386;43.846;25.950;2023-07-31T13:28:33;12.57;;;4.93;;
20629;SDS011;17386;43.846;25.950;2023-07-31T13:30:59;9.20;;;4.57;;
20629;SDS011;17386;43.846;25.950;2023-07-31T13:33:25;12.20;;;5.10;;
20629;SDS011;17386;43.846;25.950;2023-07-31T13:35:51;107.38;;;11.77;;
20629;SDS011;17386;43.846;25.950;2023-07-31T13:38:18;29.70;;;7.78;;
20629;SDS011;17386;43.846;25.950;2023-07-31T13:40:44;7.38;;;5.70;;
20629;SDS011;17386;43.846;25.950;2023-07-31T13:43:11;12.07;;;7.85;;
20629;SDS011;17386;43.846;25.950;2023-07-31T13:45:38;10.07;;;6.07;;
20629;SDS011;17386;43.846;25.950;2023-07-31T13:48:04;10.32;;;6.50;;
20629;SDS011;17386;43.846;25.950;2023-07-31T13:50:31;73.78;;;10.23;;
20629;SDS011;17386;43.846;25.950;2023-07-31T13:52:57;28.98;;;7.63;;
20629;SDS011;17386;43.846;25.950;2023-07-31T13:55:27;31.52;;;7.25;;
20629;SDS011;17386;43.846;25.950;2023-07-31T13:57:54;12.63;;;6.25;;
20629;SDS011;17386;43.846;25.950;2023-07-31T14:00:20;15.70;;;6.72;;
20629;SDS011;17386;43.846;25.950;2023-07-31T14:02:46;17.15;;;7.00;;
20629;SDS011;17386;43.846;25.950;2023-07-31T14:05:11;31.38;;;7.95;;
20629;SDS011;17386;43.846;25.950;2023-07-31T14:07:38;17.85;;;6.18;;
20629;SDS011;17386;43.846;25.950;2023-07-31T14:10:05;10.05;;;6.05;;
20629;SDS011;17386;43.846;25.950;2023-07-31T14:14:58;41.47;;;8.32;;
20629;SDS011;17386;43.846;25.950;2023-07-31T14:17:23;131.90;;;13.68;;
20629;SDS011;17386;43.846;25.950;2023-07-31T14:19:49;22.42;;;7.20;;
20629;SDS011;17386;43.846;25.950;2023-07-31T14:24:53;21.02;;;8.43;;
20629;SDS011;17386;43.846;25.950;2023-07-31T14:27:18;67.22;;;11.25;;
20629;SDS011;17386;43.846;25.950;2023-07-31T14:29:45;19.83;;;7.25;;
20629;SDS011;17386;43.846;25.950;2023-07-31T14:32:11;9.38;;;6.68;;
20629;SDS011;17386;43.846;25.950;2023-07-31T14:34:38;49.17;;;8.88;;
20629;SDS011;17386;43.846;25.950;2023-07-31T14:37:05;16.25;;;6.63;;
20629;SDS011;17386;43.846;25.950;2023-07-31T14:41:57;107.18;;;13.30;;
20629;SDS011;17386;43.846;25.950;2023-07-31T14:44:23;18.65;;;7.47;;
20629;SDS011;17386;43.846;25.950;2023-07-31T14:46:49;9.70;;;6.00;;
20629;SDS011;17386;43.846;25.950;2023-07-31T14:49:15;37.28;;;9.20;;
20629;SDS011;17386;43.846;25.950;2023-07-31T14:51:42;9.07;;;6.80;;